Погода Солькеникина неделю

Варминско-Мазурское воеводство, Польша

16 - 22 июля
  • 16июля
    Сегодня
    +19°
    +33°
    Небольшая облачность
    ВремяПогодаТемператураВлажностьДавлениеВетер, м/сВероятность осадков
    02:00Практически безоблачно+19°C80 %751 мм2.0 м/с2 %
    05:00Ясно и безоблачно+19°C85 %751 мм2.6 м/с2 %
    08:00Ясно и безоблачно+24°C71 %751 мм3.5 м/с2 %
    11:00Облачно с прояснениями+30°C56 %750 мм5.3 м/с2 %
    14:00Небольшая облачность+32°C40 %749 мм5.2 м/с8 %
    17:00Облачно с прояснениями+32°C42 %749 мм4.4 м/с25 %
    20:00Облачно с прояснениями+26°C78 %748 мм4.0 м/с45 %
    23:00Пасмурно, ливень+22°C91 %749 мм2.9 м/с45 %
  • 17июля
    Среда
    +15°
    +28°
    Ясно и безоблачно
    ВремяПогодаТемператураВлажностьДавлениеВетер, м/сВероятность осадков
    02:00Облачно с прояснениями+20°C94 %749 мм2.2 м/с14 %
    05:00Ясно и безоблачно+20°C94 %750 мм2.6 м/с2 %
    08:00Ясно и безоблачно+21°C82 %752 мм3.1 м/с2 %
    11:00Ясно и безоблачно+26°C55 %752 мм4.6 м/с2 %
    14:00Ясно и безоблачно+27°C44 %753 мм5.1 м/с2 %
    17:00Практически безоблачно+27°C44 %752 мм4.7 м/с3 %
    20:00Практически безоблачно+24°C58 %753 мм2.5 м/с2 %
    23:00Практически безоблачно+19°C83 %754 мм1.7 м/с2 %
  • 18июля
    Четверг
    +13°
    +25°
    Небольшая облачность
    ВремяПогодаТемператураВлажностьДавлениеВетер, м/сВероятность осадков
    02:00Ясно и безоблачно+17°C89 %754 мм0.9 м/с2 %
    05:00Ясно и безоблачно+16°C93 %754 мм1.8 м/с2 %
    08:00Ясно и безоблачно+20°C68 %755 мм2.8 м/с2 %
    11:00Небольшая облачность и лёгкий дождик+23°C54 %755 мм4.4 м/с35 %
    14:00Небольшая облачность+24°C49 %754 мм4.9 м/с35 %
    17:00Облачно с прояснениями+24°C49 %754 мм4.3 м/с9 %
    20:00Ясно и безоблачно+22°C64 %755 мм3.0 м/с2 %
    23:00Ясно и безоблачно+16°C89 %756 мм1.7 м/с2 %
  • 19июля
    Пятница
    +12°
    +24°
    Практически безоблачно
    ВремяПогодаТемператураВлажностьДавлениеВетер, м/сВероятность осадков
    02:00Практически безоблачно+14°C91 %755 мм1.3 м/с2 %
    05:00Небольшая облачность+14°C86 %755 мм2.0 м/с2 %
    08:00Облачно с прояснениями+18°C72 %755 мм2.9 м/с2 %
    11:00Облачно с прояснениями+21°C55 %755 мм4.3 м/с2 %
    14:00Практически безоблачно+23°C46 %754 мм4.8 м/с2 %
    17:00Ясно и безоблачно+23°C46 %754 мм4.4 м/с2 %
    20:00Ясно и безоблачно+20°C67 %753 мм3.1 м/с2 %
    23:00Ясно и безоблачно+15°C87 %753 мм2.2 м/с2 %
  • 20июля
    Суббота
    +13°
    +26°
    Облачно с прояснениями
    ВремяПогодаТемператураВлажностьДавлениеВетер, м/сВероятность осадков
    02:00Ясно и безоблачно+13°C94 %753 мм1.2 м/с2 %
    05:00Ясно и безоблачно+13°C93 %753 мм1.9 м/с2 %
    08:00Ясно и безоблачно+17°C77 %752 мм1.9 м/с2 %
    11:00Небольшая облачность+23°C52 %752 мм3.3 м/с4 %
    14:00Облачно с прояснениями+25°C45 %752 мм3.9 м/с15 %
    17:00Облачно с прояснениями+25°C49 %751 мм3.3 м/с18 %
    20:00Ясно и безоблачно+22°C65 %751 мм2.6 м/с3 %
    23:00Ясно и безоблачно+17°C90 %751 мм1.4 м/с2 %
Мы используем cookies
Соглашаюсь